Atoka, TN

8:02 PM CDT on August 27, 2014 (GMT -0500)
KTNMUNFO2 | Change Station
CLOSE
Current Station
Personal Weather Station
Location: Munford, TN
Elevation: 394 ft
Nearby Weather Stations

Elev 394 ft 35.42 °N, 89.83 °W | Updated 52 seconds ago

Partly Cloudy
Partly Cloudy
77.7 °F
Feels Like 80 °F
N
0.0
Wind Variable Wind from NNE

Today
High -- | Low -- °F
--% Chance of Precip.
Yesterday
High -- | Low -- °F
Precip. -- in
6:27 AM 7:33 PM
Waxing Crescent, 5% visible
Pressure 30.02 in
Visibility 10.0 miles
Clouds Few 15000 ft
Scattered Clouds 25000 ft
Heat Index 80 °F
Dew Point 71 °F
Humidity 80%
Rainfall 0.00 in
Snow Depth Not available.
UV 0 out of 12
Pollen 10.00 out of 12
Ozone Good
PM2.5 Moderate
Flu Activity Not available.
METAR KNQA 280050Z 00000KT 10SM FEW150 SCT250 27/21 A3002

More Conditions Fewer Conditions

Pressure 30.02 in
Visibility 10.0 miles
Clouds Few 15000 ft
Scattered Clouds 25000 ft
Heat Index 80 °F
Dew Point 71 °F
Humidity 80%
Rainfall 0.00 in
Snow Depth Not available.
UV 0 out of 12
Pollen 10.00 out of 12
Ozone Good
PM2.5 Moderate
Flu Activity Not available.
METAR KNQA 280050Z 00000KT 10SM FEW150 SCT250 27/21 A3002

More Conditions Fewer Conditions

10-Day Weather Forecast

Almanac

Astronomy

Aug. 27, 2014 Rise Set
Actual Time 6:27 AM CDT 7:33 PM CDT
Civil Twilight 6:01 AM CDT 7:59 PM CDT
Nautical Twilight 5:30 AM CDT 8:30 PM CDT
Astronomical Twilight 4:57 AM CDT 9:02 PM CDT
Moon 8:18 AM CDT (8/27) 8:31 PM CDT (8/27)
Length of Visible Light 13h 57m
Length of Day
13h 05m
Tomorrow will be 2m 5s shorter.
Waxing Crescent, 5% of the Moon is Illuminated
Today
Waxing Crescent
Sep 2
First Quarter
Sep 8
Full
Sep 15
Last Quarter
Sep 24
New

Today's Extremes

State Highs State Lows

Community

WunderPhotos

Upload Photos

1,747,843 photos uploaded!

Nearby

Air Quality

  Air Quality AQ Index Pollutant
Yesterday Moderate
OZONE
Yesterday Moderate
PM2.5
Current Moderate
PM2.5
Current Good
OZONE
Wednesday Moderate
OZONE
Wednesday Moderate
PM2.5
Thursday Moderate
OZONE
Thursday Moderate
PM2.5
Friday Moderate
PM2.5
Friday Good
OZONE

Snow Depth

Station Depth Elevation
No new snow has been reported.

Earthquake Activity

City Distance Mag. Time & Date
No recent earthquake activity has been reported nearby.
Minimum magnitude displayed is 2.5.

Coastal Water Temperatures

Place Temperature
No Stations Reporting

Nearby Weather Stations